首页
METAR-TAF:

METAR-TAF

机场 :

阿加尼亚, 關島, 美国

安東尼奧·汪帕特國際機場

纬度: 13-29N, 经度: 144-48E, 海拔: 91米

当前天气观测

该预报发布于24分钟前的12:54 UTC
风速10节,风向东转东北
温度 28°C
湿度 79%
气压 1013 hPa
能見度: 16.1公里
少量云层高于2000英尺
少量云层高于2600英尺
散云层高于5000英尺

METAR: PGUM 171254Z 07010KT 10SM FEW020 FEW026 SCT050 28/24 A2990 RMK AO2 SLP115 T02780244

时间: 23:18 (13:18 UTC)

预报

该预报发布于1小时和56分钟前的11:22 UTC
预报有效从17日的 12点(UTC)到 18日的 18点(UTC)
风速10节,风向东转东北
能見度: 10公里
散云层高于1700英尺
从 17日的 2300点(UTC)
风速15节,风向
能見度: 10公里
散云层高于2400英尺

TAF: PGUM 171122Z 1712/1818 07010KT P6SM SCT017 FM172300 08015KT P6SM SCT024

超过4000个机场的气象观测和天气预报(METAR&TAF报告)。

可查询的气象台以黄色和红色小点在地图上表示。

将鼠标移到小点上方,可查看气象台名称。

然后点击查看天气观测和预报。

如需切换地图:点击带黑十字的绿色按钮放大地图;点击带横线的绿色按钮缩小地图;或者点击绿色箭头查看邻近地区的地图。


METAR-TAF: